Gulf Bridge — A8JM5 — position and weather

sailwx.info

Track history (hours):
 
Tides and Currents Weather Stations Pressure Air Temp Water Temp Dewpoint Dewpoint Depression Visibility Wind Speed Wind Dir Waves Ship Positions

Gulf Bridge

Last reported at 2015-May-02 22:20 UTC. Time now 2015-May-05 11:15 UTC.
Position S 35°52' E 175°24'.

Length 213 m; beam 32.2 m; draft 11.5 m.

Type: Cargo ship. MMSI: 636091115.

Date/timePositionNaut miles runAvg speedWind from/ knotsBaromVisibWave heightAir tempDewpointWater temp
2015-May-02 22:20S 35°52' E 175°24'1512.7
2015-May-02 21:09S 36°03' E 175°36'912.6
2015-May-02 20:25S 36°10' E 175°44'3612.5
2015-May-02 17:33S 36°42' E 176°04'1612.9
2015-May-02 16:21S 36°57' E 176°10'1512.8
2015-May-02 15:09S 37°12' E 176°08'1012.6
2015-May-02 14:22S 37°22' E 176°09'1112.9
2015-May-02 13:33S 37°32' E 176°11'62 2.4
2015-May-01 12:10S 36°32' E 175°56'711.5
2015-May-01 11:33S 36°30' E 175°47'1211.6
2015-May-01 10:33S 36°26' E 175°33'1211.7
2015-May-01 09:33S 36°23' E 175°19'5 2.4
2015-May-01 07:17S 36°25' E 175°13'0 0.4
2015-May-01 06:34S 36°25' E 175°12'0 0.3
2015-May-01 05:33S 36°25' E 175°12'0 0.3
2015-May-01 04:33S 36°25' E 175°13'0 0.3
2015-May-01 03:33S 36°25' E 175°13'0 0.4
2015-May-01 02:33S 36°26' E 175°12'7 6.9
2015-May-01 01:31S 36°31' E 175°07'9 9.3
2015-May-01 00:33S 36°37' E 174°58'9 9.3
2015-Apr-30 23:33S 36°44' E 174°51'7 7.3
2015-Apr-30 22:33S 36°51' E 174°47'0 0.1
2015-Apr-30 21:33S 36°51' E 174°47'0 0.0
2015-Apr-30 20:34S 36°51' E 174°47'0 0.0
2015-Apr-30 19:34S 36°51' E 174°47'0 0.0
2015-Apr-30 18:31S 36°51' E 174°47'0 0.0
2015-Apr-30 17:32S 36°51' E 174°47'0 0.0
2015-Apr-30 16:33S 36°51' E 174°47'0 0.0
2015-Apr-30 15:33S 36°51' E 174°47'0 0.0
2015-Apr-30 14:34S 36°51' E 174°47'0 0.0
2015-Apr-30 13:33S 36°51' E 174°47'0 0.0
2015-Apr-30 12:34S 36°51' E 174°47'0 0.0
2015-Apr-30 11:33S 36°51' E 174°47'0 0.0
2015-Apr-30 10:33S 36°51' E 174°47'1 1.0
2015-Apr-30 09:34S 36°50' E 174°48'1010.3
2015-Apr-30 08:34S 36°41' E 174°54'10 9.8
2015-Apr-30 07:34S 36°32' E 174°59'1010.2
2015-Apr-30 06:33S 36°22' E 174°59'1110.8
2015-Apr-30 05:34S 36°11' E 174°58'  
2015-Apr-25 00:22S 33°38' E 151°39'910.9
2015-Apr-24 23:33S 33°31' E 151°46'10 9.7
2015-Apr-24 22:33S 33°24' E 151°54'1 0.7
2015-Apr-24 21:34S 33°25' E 151°54'1 0.8
2015-Apr-24 20:33S 33°26' E 151°53'1 1.0
2015-Apr-24 19:34S 33°26' E 151°52'1 0.9
2015-Apr-24 18:34S 33°26' E 151°51'1 1.0
2015-Apr-24 17:33S 33°26' E 151°50'1 1.0
2015-Apr-24 16:33S 33°26' E 151°49'1 0.9
2015-Apr-24 15:33S 33°26' E 151°48'1 0.8
2015-Apr-24 14:33S 33°26' E 151°47'1 0.6
2015-Apr-24 13:32S 33°26' E 151°46'1 0.7
2015-Apr-24 12:33S 33°26' E 151°45'0 0.4
2015-Apr-24 11:32S 33°26' E 151°45'0 0.1
2015-Apr-24 10:26S 33°25' E 151°45'0 0.3
2015-Apr-24 09:12S 33°25' E 151°45'3 0.7
2015-Apr-24 05:21S 33°24' E 151°48'1 0.6
2015-Apr-24 03:16S 33°24' E 151°50'0 0.1
2015-Apr-24 01:33S 33°24' E 151°50'0 0.2
2015-Apr-24 00:29S 33°24' E 151°50'0 0.3
2015-Apr-23 23:34S 33°24' E 151°50'0 0.3
2015-Apr-23 22:33S 33°23' E 151°50'6 6.5
2015-Apr-23 21:33S 33°18' E 151°54'1010.1
2015-Apr-23 20:33S 33°10' E 152°02'1010.4
2015-Apr-23 19:33S 33°02' E 152°10'1010.4
2015-Apr-23 18:33S 32°53' E 152°17'1111.0
2015-Apr-23 17:33S 32°45' E 152°25'1111.2
2015-Apr-23 16:33S 32°36' E 152°33'1010.5
2015-Apr-23 15:34S 32°27' E 152°41'1110.4
2015-Apr-23 14:33S 32°18' E 152°45'1210.6
2015-Apr-23 13:27S 32°07' E 152°49'  
Track history (hours):
 
Tides and Currents Weather Stations Pressure Air Temp Water Temp Dewpoint Dewpoint Depression Visibility Wind Speed Wind Dir Waves Ship Positions

Gulf Bridge

Last reported at 2015-May-02 22:20 UTC. Time now 2015-May-05 11:15 UTC.
Position S 35°52' E 175°24'.

Length 213 m; beam 32.2 m; draft 11.5 m.

Type: Cargo ship. MMSI: 636091115.

Date/timePositionNaut miles runAvg speedWind from/ knotsBaromVisibWave heightAir tempDewpointWater temp
2015-May-02 22:20S 35°52' E 175°24'1512.7
2015-May-02 21:09S 36°03' E 175°36'912.6
2015-May-02 20:25S 36°10' E 175°44'3612.5
2015-May-02 17:33S 36°42' E 176°04'1612.9
2015-May-02 16:21S 36°57' E 176°10'1512.8
2015-May-02 15:09S 37°12' E 176°08'1012.6
2015-May-02 14:22S 37°22' E 176°09'1112.9
2015-May-02 13:33S 37°32' E 176°11'62 2.4
2015-May-01 12:10S 36°32' E 175°56'711.5
2015-May-01 11:33S 36°30' E 175°47'1211.6
2015-May-01 10:33S 36°26' E 175°33'1211.7
2015-May-01 09:33S 36°23' E 175°19'5 2.4
2015-May-01 07:17S 36°25' E 175°13'0 0.4
2015-May-01 06:34S 36°25' E 175°12'0 0.3
2015-May-01 05:33S 36°25' E 175°12'0 0.3
2015-May-01 04:33S 36°25' E 175°13'0 0.3
2015-May-01 03:33S 36°25' E 175°13'0 0.4
2015-May-01 02:33S 36°26' E 175°12'7 6.9
2015-May-01 01:31S 36°31' E 175°07'9 9.3
2015-May-01 00:33S 36°37' E 174°58'9 9.3
2015-Apr-30 23:33S 36°44' E 174°51'7 7.3
2015-Apr-30 22:33S 36°51' E 174°47'0 0.1
2015-Apr-30 21:33S 36°51' E 174°47'0 0.0
2015-Apr-30 20:34S 36°51' E 174°47'0 0.0
2015-Apr-30 19:34S 36°51' E 174°47'0 0.0
2015-Apr-30 18:31S 36°51' E 174°47'0 0.0
2015-Apr-30 17:32S 36°51' E 174°47'0 0.0
2015-Apr-30 16:33S 36°51' E 174°47'0 0.0
2015-Apr-30 15:33S 36°51' E 174°47'0 0.0
2015-Apr-30 14:34S 36°51' E 174°47'0 0.0
2015-Apr-30 13:33S 36°51' E 174°47'0 0.0
2015-Apr-30 12:34S 36°51' E 174°47'0 0.0
2015-Apr-30 11:33S 36°51' E 174°47'0 0.0
2015-Apr-30 10:33S 36°51' E 174°47'1 1.0
2015-Apr-30 09:34S 36°50' E 174°48'1010.3
2015-Apr-30 08:34S 36°41' E 174°54'10 9.8
2015-Apr-30 07:34S 36°32' E 174°59'1010.2
2015-Apr-30 06:33S 36°22' E 174°59'1110.8
2015-Apr-30 05:34S 36°11' E 174°58'  
2015-Apr-25 00:22S 33°38' E 151°39'910.9
2015-Apr-24 23:33S 33°31' E 151°46'10 9.7
2015-Apr-24 22:33S 33°24' E 151°54'1 0.7
2015-Apr-24 21:34S 33°25' E 151°54'1 0.8
2015-Apr-24 20:33S 33°26' E 151°53'1 1.0
2015-Apr-24 19:34S 33°26' E 151°52'1 0.9
2015-Apr-24 18:34S 33°26' E 151°51'1 1.0
2015-Apr-24 17:33S 33°26' E 151°50'1 1.0
2015-Apr-24 16:33S 33°26' E 151°49'1 0.9
2015-Apr-24 15:33S 33°26' E 151°48'1 0.8
2015-Apr-24 14:33S 33°26' E 151°47'1 0.6
2015-Apr-24 13:32S 33°26' E 151°46'1 0.7
2015-Apr-24 12:33S 33°26' E 151°45'0 0.4
2015-Apr-24 11:32S 33°26' E 151°45'0 0.1
2015-Apr-24 10:26S 33°25' E 151°45'0 0.3
2015-Apr-24 09:12S 33°25' E 151°45'3 0.7
2015-Apr-24 05:21S 33°24' E 151°48'1 0.6
2015-Apr-24 03:16S 33°24' E 151°50'0 0.1
2015-Apr-24 01:33S 33°24' E 151°50'0 0.2
2015-Apr-24 00:29S 33°24' E 151°50'0 0.3
2015-Apr-23 23:34S 33°24' E 151°50'0 0.3
2015-Apr-23 22:33S 33°23' E 151°50'6 6.5
2015-Apr-23 21:33S 33°18' E 151°54'1010.1
2015-Apr-23 20:33S 33°10' E 152°02'1010.4
2015-Apr-23 19:33S 33°02' E 152°10'1010.4
2015-Apr-23 18:33S 32°53' E 152°17'1111.0
2015-Apr-23 17:33S 32°45' E 152°25'1111.2
2015-Apr-23 16:33S 32°36' E 152°33'1010.5
2015-Apr-23 15:34S 32°27' E 152°41'1110.4
2015-Apr-23 14:33S 32°18' E 152°45'1210.6
2015-Apr-23 13:27S 32°07' E 152°49'  

Dump ship's entire track history